Time;durP1;ratioP1;P1;durP2;ratioP2;P2;SDS_P1;SDS_P2;PMS_P1;PMS_P2;Temp;Humidity;BMP_temperature;BMP_pressure;BME280_temperature;BME280_humidity;BME280_pressure;Samples;Min_cycle;Max_cycle;Signal;HPM_P1;HPM_P2
2022/12/05 00:01:22;;;;;;;2.58;0.88;;;3.90;99.90;;;;;;6243678;23;20016;-88
2022/12/05 00:03:51;;;;;;;;;;;3.80;99.90;;;;;;6245254;23;20016;-89
2022/12/05 00:06:18;;;;;;;0.77;0.55;;;3.80;99.90;;;;;;6218042;23;19915;-89
2022/12/05 00:08:46;;;;;;;1.35;0.80;;;4.70;99.90;;;;;;6218999;23;20027;-88
2022/12/05 00:11:17;;;;;;;1.85;1.08;;;3.80;99.90;;;;;;6193919;23;20322;-88
2022/12/05 00:13:44;;;;;;;1.35;0.60;;;3.80;99.90;;;;;;6218808;23;20016;-88
2022/12/05 00:16:16;;;;;;;1.88;0.93;;;3.80;99.90;;;;;;6243028;23;20023;-89
2022/12/05 00:18:44;;;;;;;2.92;1.38;;;3.70;99.90;;;;;;6218250;23;20449;-88
2022/12/05 00:21:19;;;;;;;0.88;0.60;;;5.20;99.90;;;;;;6243623;23;20022;-88
2022/12/05 00:23:45;;;;;;;1.65;0.93;;;5.10;99.90;;;;;;6244765;23;20039;-88
2022/12/05 00:26:11;;;;;;;3.90;1.17;;;5.10;99.90;;;;;;6244593;22;20016;-89
2022/12/05 00:28:40;;;;;;;3.90;1.25;;;3.80;99.90;;;;;;6218937;23;20023;-88
2022/12/05 00:31:08;;;;;;;4.80;1.00;;;5.10;99.90;;;;;;6243507;23;20017;-89
2022/12/05 00:33:34;;;;;;;1.02;0.95;;;4.30;99.90;;;;;;6218540;23;20016;-88
2022/12/05 00:36:04;;;;;;;2.43;0.63;;;3.80;99.90;;;;;;6218333;23;20023;-88
2022/12/05 00:38:32;;;;;;;4.22;1.17;;;3.80;99.90;;;;;;6219661;23;20107;-88
2022/12/05 00:41:07;;;;;;;1.47;0.60;;;4.00;99.90;;;;;;6244283;23;20016;-88
2022/12/05 00:43:33;;;;;;;2.60;1.23;;;3.80;99.90;;;;;;6244176;23;20018;-88
2022/12/05 00:46:03;;;;;;;1.70;0.93;;;3.80;99.90;;;;;;6242940;23;20023;-89
2022/12/05 00:48:30;;;;;;;0.95;0.82;;;4.00;99.90;;;;;;6218398;23;20297;-89
2022/12/05 00:51:20;;;;;;;3.08;1.10;;;3.90;99.90;;;;;;6218670;23;20054;-88
2022/12/05 00:53:46;;;;;;;1.27;1.00;;;3.90;99.90;;;;;;6196527;23;20020;-90
2022/12/05 00:56:14;;;;;;;7.00;1.92;;;3.90;99.90;;;;;;6217421;23;20336;-89
2022/12/05 00:58:41;;;;;;;1.55;1.38;;;4.00;99.90;;;;;;6218529;23;20012;-88
2022/12/05 01:01:12;;;;;;;2.97;1.13;;;4.00;99.90;;;;;;6243471;23;20444;-88
2022/12/05 01:03:39;;;;;;;1.25;0.30;;;4.00;99.90;;;;;;6244319;23;20452;-89
2022/12/05 01:06:05;;;;;;;0.70;0.70;;;4.00;99.90;;;;;;6218129;23;20070;-89
2022/12/05 01:08:33;;;;;;;1.00;0.93;;;4.00;99.90;;;;;;6242799;23;20073;-88
2022/12/05 01:10:59;;;;;;;4.13;1.20;;;4.50;99.90;;;;;;6243916;23;20016;-88
2022/12/05 01:13:26;;;;;;;1.13;0.77;;;4.10;99.90;;;;;;6242498;23;20019;-89
2022/12/05 01:15:52;;;;;;;1.60;0.88;;;4.10;99.90;;;;;;6243809;23;20470;-88
2022/12/05 01:18:19;;;;;;;1.73;1.08;;;4.10;99.90;;;;;;6238000;23;20624;-88
2022/12/05 01:20:45;;;;;;;3.30;1.10;;;5.10;99.90;;;;;;6188518;23;20021;-88
2022/12/05 01:23:11;;;;;;;2.25;0.98;;;4.70;99.90;;;;;;6187371;23;20017;-88
2022/12/05 01:25:41;;;;;;;2.67;1.50;;;5.10;99.90;;;;;;6188807;23;20027;-88
2022/12/05 01:28:07;;;;;;;1.92;0.93;;;5.50;99.90;;;;;;6163004;23;20016;-89
2022/12/05 01:30:41;;;;;;;3.20;0.82;;;4.20;99.90;;;;;;6187734;23;20091;-89
2022/12/05 01:33:07;;;;;;;1.08;0.95;;;4.20;99.90;;;;;;6188719;23;20017;-89
2022/12/05 01:35:35;;;;;;;1.60;0.90;;;4.20;99.90;;;;;;6163030;23;20086;-89
2022/12/05 01:38:01;;;;;;;2.33;1.15;;;4.20;99.90;;;;;;6162058;23;20021;-88
2022/12/05 01:40:27;;;;;;;1.92;1.17;;;4.20;99.90;;;;;;6187730;23;20016;-88
2022/12/05 01:42:53;;;;;;;1.42;0.82;;;4.20;99.90;;;;;;6188484;23;20396;-89
2022/12/05 01:45:35;;;;;;;2.87;1.30;;;4.30;99.90;;;;;;6162897;23;20028;-88
2022/12/05 01:48:16;;;;;;;1.17;0.80;;;4.20;99.90;;;;;;6162370;23;20244;-88
2022/12/05 01:50:43;;;;;;;1.08;0.77;;;4.20;99.90;;;;;;6188535;23;20437;-88
2022/12/05 01:53:09;;;;;;;2.60;1.35;;;4.30;99.90;;;;;;6163496;23;20469;-88
2022/12/05 01:55:35;;;;;;;3.47;1.25;;;5.60;99.90;;;;;;6187428;23;20453;-88
2022/12/05 01:58:04;;;;;;;0.80;0.63;;;4.50;99.90;;;;;;6138227;23;20380;-88
2022/12/05 02:00:29;;;;;;;0.60;0.40;;;4.30;99.90;;;;;;6163057;23;20430;-88
2022/12/05 02:02:58;;;;;;;1.47;0.60;;;4.30;99.90;;;;;;6188320;23;20016;-88
2022/12/05 02:05:34;;;;;;;1.05;0.65;;;4.30;99.90;;;;;;6187667;23;20441;-88
2022/12/05 02:08:05;;;;;;;1.88;0.73;;;4.30;99.90;;;;;;6162829;23;20024;-89
2022/12/05 02:10:45;;;;;;;3.47;0.75;;;4.30;99.90;;;;;;6162915;23;20439;-88
2022/12/05 02:13:41;;;;;;;3.58;0.90;;;4.30;99.90;;;;;;6163429;23;20446;-89
2022/12/05 02:16:44;;;;;;;1.92;1.30;;;4.30;99.90;;;;;;6163225;23;20040;-89
2022/12/05 02:19:36;;;;;;;3.25;1.30;;;4.30;99.90;;;;;;6187175;23;20024;-89
2022/12/05 02:22:01;;;;;;;5.32;0.90;;;4.30;99.90;;;;;;6218109;23;20021;-89
2022/12/05 02:24:42;;;;;;;1.10;0.87;;;4.30;99.90;;;;;;6243995;23;20027;-89
2022/12/05 02:27:33;;;;;;;2.22;1.25;;;4.30;99.90;;;;;;6245544;23;20449;-89
2022/12/05 02:30:20;;;;;;;1.02;0.85;;;4.30;99.90;;;;;;6219422;23;20023;-89
2022/12/05 02:33:04;;;;;;;1.15;0.85;;;4.30;99.90;;;;;;6220057;23;20020;-89
2022/12/05 02:35:52;;;;;;;2.55;1.10;;;4.30;99.90;;;;;;6219620;23;20016;-89
2022/12/05 02:38:44;;;;;;;1.02;0.75;;;4.30;99.90;;;;;;6245241;23;20090;-88
2022/12/05 02:41:35;;;;;;;2.50;0.70;;;4.30;99.90;;;;;;6245235;23;20020;-89
2022/12/05 02:44:16;;;;;;;1.48;0.68;;;4.70;99.90;;;;;;6226914;23;20012;-89
2022/12/05 02:46:45;;;;;;;3.35;1.33;;;4.30;99.90;;;;;;6244313;23;20440;-90
2022/12/05 02:49:18;;;;;;;1.20;1.10;;;4.70;99.90;;;;;;6244643;23;20483;-89
2022/12/05 02:51:48;;;;;;;2.80;0.70;;;4.30;99.90;;;;;;6245840;23;20445;-89
2022/12/05 02:54:22;;;;;;;1.33;0.60;;;4.40;99.90;;;;;;6245534;23;20052;-89
2022/12/05 02:56:52;;;;;;;0.90;0.63;;;4.40;99.90;;;;;;6245265;23;20321;-90
2022/12/05 02:59:18;;;;;;;1.38;0.57;;;4.40;99.90;;;;;;6244309;23;20070;-90
2022/12/05 03:01:46;;;;;;;1.67;1.00;;;4.40;99.90;;;;;;6244744;23;20012;-89
2022/12/05 03:04:13;;;;;;;0.68;0.68;;;5.10;99.90;;;;;;6245045;23;20016;-89
2022/12/05 03:06:41;;;;;;;3.45;0.93;;;4.40;99.90;;;;;;6219077;23;20527;-90
2022/12/05 03:09:25;;;;;;;4.45;1.15;;;4.40;99.90;;;;;;6245219;23;20457;-89
2022/12/05 03:12:01;;;;;;;1.35;0.60;;;4.30;99.90;;;;;;6220076;23;20039;-90
2022/12/05 03:14:37;;;;;;;0.77;0.32;;;4.40;99.90;;;;;;6244620;23;20056;-90
2022/12/05 03:17:09;;;;;;;1.85;0.60;;;4.40;99.90;;;;;;6245447;23;20020;-90
2022/12/05 03:19:41;;;;;;;2.15;0.90;;;4.40;99.90;;;;;;6243610;23;20464;-89
2022/12/05 03:22:23;;;;;;;1.80;1.08;;;4.50;99.90;;;;;;6219356;23;20020;-90
2022/12/05 03:24:50;;;;;;;1.48;0.50;;;4.40;99.90;;;;;;6244577;23;20512;-90
2022/12/05 03:27:34;;;;;;;1.67;0.35;;;4.30;99.90;;;;;;6219081;23;20016;-90
2022/12/05 03:30:13;;;;;;;0.80;0.63;;;4.40;99.90;;;;;;6219401;23;20020;-90
2022/12/05 03:32:48;;;;;;;1.95;0.77;;;4.40;99.90;;;;;;6244343;23;20341;-90
2022/12/05 03:35:20;;;;;;;0.30;0.17;;;4.40;99.90;;;;;;6244476;23;20111;-90
2022/12/05 03:37:52;;;;;;;0.43;0.43;;;4.40;99.90;;;;;;6218478;23;20008;-90
2022/12/05 03:40:45;;;;;;;0.32;0.30;;;4.40;99.90;;;;;;6244245;23;20337;-89
2022/12/05 03:43:17;;;;;;;0.32;0.32;;;4.40;99.90;;;;;;6219367;23;20440;-90
2022/12/05 03:45:52;;;;;;;0.20;0.10;;;4.50;99.90;;;;;;6218792;23;20051;-90
2022/12/05 03:48:20;;;;;;;1.35;0.30;;;4.40;99.90;;;;;;6245043;23;20047;-89
2022/12/05 03:50:47;;;;;;;2.33;0.95;;;4.40;99.90;;;;;;6243347;23;20016;-89
2022/12/05 03:53:20;;;;;;;0.57;0.57;;;4.40;99.90;;;;;;6244794;23;20020;-90
2022/12/05 03:55:53;;;;;;;0.55;0.30;;;4.50;99.90;;;;;;6218657;23;20016;-90
2022/12/05 03:58:29;;;;;;;0.95;0.70;;;4.50;99.90;;;;;;6244120;23;20024;-90
2022/12/05 04:00:57;;;;;;;1.67;0.80;;;4.50;99.90;;;;;;6243948;23;20023;-90
2022/12/05 04:03:39;;;;;;;0.45;0.45;;;4.60;99.90;;;;;;6245925;22;20016;-89
2022/12/05 04:06:14;;;;;;;0.40;0.13;;;4.50;99.90;;;;;;6219314;23;20027;-90
2022/12/05 04:08:47;;;;;;;0.43;0.40;;;4.50;99.90;;;;;;6243845;23;20020;-90
2022/12/05 04:11:22;;;;;;;1.05;0.80;;;4.40;99.90;;;;;;6218636;23;20095;-90
2022/12/05 04:14:05;;;;;;;0.63;0.52;;;4.50;99.90;;;;;;6218574;23;20048;-90
2022/12/05 04:17:04;;;;;;;0.68;0.32;;;4.50;99.90;;;;;;6244479;23;20380;-88
2022/12/05 04:22:30;;;;;;;0.77;0.20;;;4.50;99.90;;;;;;6244008;23;20471;-90
2022/12/05 04:27:51;;;;;;;2.03;0.45;;;4.50;99.90;;;;;;6243845;23;20027;-89
2022/12/05 04:30:23;;;;;;;0.60;0.60;;;4.50;99.90;;;;;;6243980;23;20385;-90
2022/12/05 04:33:07;;;;;;;0.22;0.17;;;4.50;99.90;;;;;;6217976;23;20405;-89
2022/12/05 04:35:57;;;;;;;1.48;0.50;;;4.50;99.90;;;;;;6243756;23;20091;-89
2022/12/05 04:38:31;;;;;;;0.10;0.10;;;4.50;99.90;;;;;;6244421;23;20020;-90
2022/12/05 04:41:02;;;;;;;1.20;0.32;;;4.50;99.90;;;;;;6218594;23;20022;-90
2022/12/05 04:43:37;;;;;;;1.52;0.47;;;4.50;99.90;;;;;;6218674;23;20536;-90
2022/12/05 04:46:06;;;;;;;0.20;0.20;;;4.50;99.90;;;;;;6245738;22;20019;-90
2022/12/05 04:48:36;;;;;;;1.92;0.60;;;4.50;99.90;;;;;;6219114;23;20052;-90
2022/12/05 04:51:11;;;;;;;0.32;0.25;;;4.50;99.90;;;;;;6244526;23;20016;-90
2022/12/05 04:53:40;;;;;;;0.52;0.30;;;4.50;99.90;;;;;;6244883;22;20016;-89
2022/12/05 04:56:08;;;;;;;0.95;0.43;;;4.50;99.90;;;;;;6218587;23;20048;-90
2022/12/05 04:58:36;;;;;;;0.35;0.17;;;4.50;99.90;;;;;;6244023;23;20044;-88
2022/12/05 05:01:14;;;;;;;0.70;0.37;;;5.30;99.90;;;;;;6243924;23;20020;-91
2022/12/05 05:03:51;;;;;;;0.98;0.20;;;4.50;99.90;;;;;;6243137;23;20090;-90
2022/12/05 05:06:17;;;;;;;0.35;0.28;;;4.50;99.90;;;;;;6243692;23;20027;-90
2022/12/05 05:08:53;;;;;;;1.10;0.20;;;4.50;99.90;;;;;;6218584;23;20322;-90
2022/12/05 05:11:28;;;;;;;0.47;0.47;;;4.50;99.90;;;;;;6244362;23;20580;-90
2022/12/05 05:13:54;;;;;;;0.10;0.10;;;4.50;99.90;;;;;;6216849;23;20016;-90
2022/12/05 05:16:24;;;;;;;0.57;0.30;;;4.50;99.90;;;;;;6244489;23;20428;-90
2022/12/05 05:18:51;;;;;;;0.73;0.10;;;4.60;99.90;;;;;;6217720;23;20051;-91
2022/12/05 05:21:27;;;;;;;0.85;0.35;;;4.90;99.90;;;;;;6218946;23;20024;-91
2022/12/05 05:23:53;;;;;;;0.13;0.10;;;4.50;99.90;;;;;;6217690;23;20514;-91
2022/12/05 05:26:20;;;;;;;0.47;0.22;;;4.50;99.90;;;;;;6218997;23;20015;-92
2022/12/05 05:28:46;;;;;;;0.85;0.15;;;5.00;99.90;;;;;;6217374;23;20016;-92
2022/12/05 05:31:13;;;;;;;0.55;0.47;;;4.60;99.90;;;;;;6244602;23;20016;-92
2022/12/05 05:33:39;;;;;;;0.22;0.22;;;5.60;99.90;;;;;;6243071;23;20012;-93
2022/12/05 05:36:08;;;;;;;1.55;0.55;;;4.60;99.90;;;;;;6193231;23;20016;-93
2022/12/05 05:38:38;;;;;;;0.38;0.20;;;4.60;99.90;;;;;;6244331;23;20067;-92
2022/12/05 05:41:04;;;;;;;1.65;0.40;;;4.60;99.90;;;;;;6243448;23;20022;-92
2022/12/05 05:43:30;;;;;;;0.10;0.05;;;4.60;99.90;;;;;;6193690;23;20341;-93
2022/12/05 05:45:56;;;;;;;0.45;0.17;;;4.90;99.90;;;;;;6243534;23;20349;-92
2022/12/05 05:48:22;;;;;;;0.83;0.30;;;4.60;99.90;;;;;;6219116;23;20016;-92
2022/12/05 05:50:48;;;;;;;0.93;0.50;;;4.60;99.90;;;;;;6243009;23;20442;-92
2022/12/05 05:53:13;;;;;;;0.10;0.10;;;4.60;99.90;;;;;;6244025;23;20020;-92
2022/12/05 05:55:40;;;;;;;0.10;0.10;;;5.20;99.90;;;;;;6218319;23;20024;-93
2022/12/05 05:58:05;;;;;;;0.10;0.10;;;4.60;99.90;;;;;;6243285;23;20082;-93
2022/12/05 06:00:31;;;;;;;0.40;0.40;;;4.60;99.90;;;;;;6220020;23;20075;-93
2022/12/05 06:02:57;;;;;;;0.40;0.40;;;5.10;99.90;;;;;;6220031;23;20519;-92
2022/12/05 06:05:23;;;;;;;0.45;0.45;;;4.60;99.90;;;;;;6220651;23;20016;-92
2022/12/05 06:07:51;;;;;;;0.93;0.20;;;4.60;99.90;;;;;;6170415;23;20449;-92
2022/12/05 06:10:17;;;;;;;1.45;0.43;;;4.60;99.90;;;;;;6220794;23;20022;-92
2022/12/05 06:12:45;;;;;;;1.20;0.30;;;4.60;99.90;;;;;;6246152;23;20097;-91
2022/12/05 06:15:11;;;;;;;0.20;0.10;;;4.60;99.90;;;;;;6196430;23;20275;-93
2022/12/05 06:17:37;;;;;;;1.70;0.50;;;4.60;99.90;;;;;;6220394;23;20023;-93
2022/12/05 06:20:04;;;;;;;0.37;0.23;;;5.60;99.90;;;;;;6194878;23;20073;-92
2022/12/05 06:22:30;;;;;;;0.30;0.20;;;4.60;99.90;;;;;;6246070;23;20016;-93
2022/12/05 06:24:57;;;;;;;0.43;0.20;;;4.60;99.90;;;;;;6219512;23;20409;-92
2022/12/05 06:27:22;;;;;;;0.00;0.00;;;5.20;99.90;;;;;;6246027;23;20016;-92
2022/12/05 06:29:48;;;;;;;0.97;0.40;;;4.60;99.90;;;;;;6220263;23;20012;-90
2022/12/05 06:32:14;;;;;;;0.30;0.30;;;4.60;99.90;;;;;;6195493;23;20091;-92
2022/12/05 06:34:39;;;;;;;0.00;0.00;;;4.60;99.90;;;;;;6220780;23;20441;-93
2022/12/05 06:37:05;;;;;;;0.20;0.20;;;4.60;99.90;;;;;;6219481;23;20039;-92
2022/12/05 06:39:31;;;;;;;0.40;0.27;;;5.20;99.90;;;;;;6219899;23;20145;-92
2022/12/05 06:41:57;;;;;;;0.20;0.20;;;4.60;99.90;;;;;;6194801;23;20020;-92
2022/12/05 06:44:25;;;;;;;0.00;0.00;;;4.60;99.90;;;;;;6245831;23;20066;-92
2022/12/05 06:46:52;;;;;;;0.88;0.20;;;5.70;99.90;;;;;;6244563;23;20016;-89
2022/12/05 06:49:18;;;;;;;0.25;0.20;;;4.70;99.90;;;;;;6220153;23;20020;-92
2022/12/05 06:51:44;;;;;;;0.10;0.10;;;5.10;99.90;;;;;;6247057;23;20022;-92
2022/12/05 06:54:12;;;;;;;0.38;0.22;;;4.80;99.90;;;;;;6246483;22;20031;-93
2022/12/05 06:56:37;;;;;;;0.52;0.30;;;4.70;99.90;;;;;;6244937;23;20013;-92
2022/12/05 06:59:03;;;;;;;0.13;0.07;;;4.60;99.90;;;;;;6219691;23;20433;-93
2022/12/05 07:01:38;;;;;;;0.63;0.20;;;5.10;99.90;;;;;;6244790;23;20027;-92
2022/12/05 07:04:06;;;;;;;0.55;0.30;;;4.70;99.90;;;;;;6219491;23;20095;-92
2022/12/05 07:06:34;;;;;;;0.47;0.40;;;4.60;99.90;;;;;;6219650;23;20023;-92
2022/12/05 07:08:59;;;;;;;0.68;0.63;;;4.70;99.90;;;;;;6246231;22;20031;-92
2022/12/05 07:11:25;;;;;;;2.33;0.27;;;4.70;99.90;;;;;;6219323;23;20024;-93
2022/12/05 07:13:51;;;;;;;1.50;0.20;;;4.70;99.90;;;;;;6220297;23;20016;-92
2022/12/05 07:16:17;;;;;;;0.90;0.40;;;5.20;99.90;;;;;;6222341;23;20070;-92
2022/12/05 07:18:43;;;;;;;0.10;0.10;;;4.60;99.90;;;;;;6220764;23;20063;-93
2022/12/05 07:21:12;;;;;;;1.73;0.50;;;4.80;99.90;;;;;;6218213;23;20251;-90
2022/12/05 07:23:38;;;;;;;0.88;0.40;;;4.70;99.90;;;;;;6244242;23;20023;-92
2022/12/05 07:26:05;;;;;;;0.08;0.08;;;4.70;99.90;;;;;;6244330;23;20349;-92
2022/12/05 07:28:31;;;;;;;2.05;0.55;;;4.70;99.90;;;;;;6195100;23;20374;-93
2022/12/05 07:31:02;;;;;;;0.53;0.47;;;4.70;99.90;;;;;;6246323;22;20016;-88
2022/12/05 07:33:28;;;;;;;0.85;0.25;;;4.70;99.90;;;;;;6244786;23;20697;-93
2022/12/05 07:36:02;;;;;;;0.38;0.38;;;4.70;99.90;;;;;;6244783;23;20017;-91
2022/12/05 07:38:28;;;;;;;0.52;0.28;;;4.70;99.90;;;;;;6246446;23;20016;-92
2022/12/05 07:40:54;;;;;;;0.15;0.13;;;4.70;99.90;;;;;;6251929;23;20022;-94
2022/12/05 07:43:19;;;;;;;1.30;0.30;;;4.70;99.90;;;;;;6245931;23;20095;-96
2022/12/05 07:45:45;;;;;;;0.83;0.10;;;5.10;99.90;;;;;;6196099;23;20085;-96
2022/12/05 07:48:11;;;;;;;1.10;0.20;;;4.70;99.90;;;;;;6220802;23;20024;-93
2022/12/05 07:50:36;;;;;;;2.33;0.30;;;5.00;99.90;;;;;;6244666;23;20090;-92
2022/12/05 07:53:02;;;;;;;0.00;0.00;;;4.70;99.90;;;;;;6242047;23;20016;-94
2022/12/05 07:55:28;;;;;;;0.37;0.30;;;5.60;99.90;;;;;;6242472;23;20383;-94
2022/12/05 07:57:54;;;;;;;0.53;0.10;;;4.70;99.90;;;;;;6220662;23;20024;-96
2022/12/05 08:00:20;;;;;;;2.77;0.30;;;4.70;99.90;;;;;;6220936;23;20024;-94
2022/12/05 08:02:46;;;;;;;0.65;0.22;;;4.70;99.90;;;;;;6223619;23;20023;-92
2022/12/05 08:05:11;;;;;;;0.77;0.10;;;4.70;99.90;;;;;;6219832;23;20008;-91
2022/12/05 08:07:37;;;;;;;0.53;0.27;;;4.70;99.90;;;;;;6226570;23;20023;-93
2022/12/05 08:10:08;;;;;;;0.37;0.20;;;4.70;99.90;;;;;;6272149;22;20099;-84
2022/12/05 08:12:36;;;;;;;0.52;0.52;;;4.70;99.90;;;;;;6234905;22;20027;-94
2022/12/05 08:15:03;;;;;;;0.75;0.38;;;5.90;99.90;;;;;;6285875;22;20015;-83
2022/12/05 08:17:32;;;;;;;0.43;0.20;;;4.70;99.90;;;;;;6255406;22;20023;-96
2022/12/05 08:19:58;;;;;;;0.88;0.13;;;5.50;99.90;;;;;;6249511;22;20016;-92
2022/12/05 08:22:23;;;;;;;0.30;0.20;;;6.10;99.90;;;;;;6248469;22;20489;-93
2022/12/05 08:24:52;;;;;;;0.30;0.17;;;4.50;99.90;;;;;;6249972;22;20471;-94
2022/12/05 08:27:18;;;;;;;0.38;0.20;;;5.00;99.90;;;;;;6252417;22;20023;-95
2022/12/05 08:29:43;;;;;;;2.30;0.40;;;5.60;99.90;;;;;;6253614;22;20016;-95
2022/12/05 08:32:09;;;;;;;0.03;0.03;;;4.50;99.90;;;;;;6228478;22;20027;-96
2022/12/05 08:34:35;;;;;;;0.33;0.33;;;4.50;99.90;;;;;;6257828;22;20077;-96
2022/12/05 08:37:01;;;;;;;0.13;0.13;;;4.70;99.90;;;;;;6227824;22;20503;-96
2022/12/05 08:39:27;;;;;;;0.10;0.10;;;5.90;99.90;;;;;;6252051;22;20058;-93
2022/12/05 08:41:55;;;;;;;1.20;0.40;;;5.20;99.90;;;;;;6252517;22;20026;-96
2022/12/05 08:44:24;;;;;;;0.63;0.40;;;4.70;99.90;;;;;;6226108;22;20055;-96
2022/12/05 08:46:52;;;;;;;0.38;0.38;;;4.70;99.90;;;;;;6279186;22;20016;-93
2022/12/05 08:49:18;;;;;;;0.20;0.20;;;4.70;99.90;;;;;;6231117;22;20428;-96
2022/12/05 08:51:47;;;;;;;0.47;0.20;;;5.70;99.90;;;;;;6280287;22;20073;-96
2022/12/05 08:54:15;;;;;;;0.63;0.40;;;6.00;99.90;;;;;;6291199;22;20024;-96
2022/12/05 08:56:41;;;;;;;0.38;0.28;;;5.80;99.90;;;;;;6267853;22;20050;-96
2022/12/05 08:59:12;;;;;;;0.98;0.57;;;4.60;99.90;;;;;;6289836;22;20006;-93
2022/12/05 09:01:43;;;;;;;0.55;0.28;;;3.60;99.90;;;;;;6252595;22;20424;-94
2022/12/05 09:04:11;;;;;;;0.85;0.22;;;4.70;99.90;;;;;;6259838;22;20510;-84
2022/12/05 09:06:47;;;;;;;0.65;0.38;;;4.70;99.90;;;;;;6241674;22;20095;-96
2022/12/05 09:09:13;;;;;;;0.70;0.22;;;6.00;99.90;;;;;;6183931;23;20020;-95
2022/12/05 09:11:49;;;;;;;0.40;0.37;;;5.50;99.90;;;;;;6194839;23;20027;-96
2022/12/05 09:14:16;;;;;;;0.17;0.17;;;5.20;99.90;;;;;;6222548;23;20017;-96
2022/12/05 09:16:45;;;;;;;0.38;0.30;;;4.70;99.90;;;;;;6219323;23;20044;-96
2022/12/05 09:19:23;;;;;;;0.20;0.10;;;4.20;99.90;;;;;;6224828;23;20024;-87
2022/12/05 09:21:51;;;;;;;;;;;4.70;99.90;;;;;;6197014;23;20076;-85
2022/12/05 09:24:17;;;;;;;;;;;4.80;99.90;;;;;;6189412;23;19916;-90
2022/12/05 09:26:43;;;;;;;0.77;0.22;;;5.40;99.90;;;;;;6163679;23;19939;-87
2022/12/05 09:29:10;;;;;;;0.23;0.23;;;5.50;99.90;;;;;;6187715;23;20026;-90
2022/12/05 09:31:38;;;;;;;0.32;0.15;;;4.70;99.90;;;;;;6214011;23;20072;-92
2022/12/05 09:34:03;;;;;;;0.20;0.10;;;6.10;99.90;;;;;;6188738;23;20016;-93
2022/12/05 09:36:31;;;;;;;1.13;0.47;;;5.40;99.90;;;;;;6212996;23;20019;-93
2022/12/05 09:39:02;;;;;;;1.85;0.60;;;4.60;99.90;;;;;;6214393;23;20047;-94
2022/12/05 09:42:09;;;;;;;0.35;0.20;;;4.70;99.90;;;;;;6188432;23;20079;-92
2022/12/05 09:45:02;;;;;;;0.13;0.13;;;4.70;99.90;;;;;;6188248;23;20099;-91
2022/12/05 09:47:58;;;;;;;0.32;0.32;;;4.70;99.90;;;;;;6213182;23;20017;-91
2022/12/05 09:50:28;;;;;;;0.13;0.10;;;4.70;99.90;;;;;;6136733;23;20012;-92
2022/12/05 09:53:20;;;;;;;0.47;0.20;;;4.70;99.90;;;;;;6213752;23;20024;-92
2022/12/05 09:55:52;;;;;;;0.95;0.55;;;4.70;99.90;;;;;;6189265;23;20024;-92
2022/12/05 09:58:32;;;;;;;1.38;0.52;;;4.80;99.90;;;;;;6213520;23;20024;-89
2022/12/05 10:01:18;;;;;;;1.05;0.85;;;4.70;99.90;;;;;;6214740;23;20345;-91
2022/12/05 10:04:13;;;;;;;0.85;0.20;;;5.00;99.90;;;;;;6138882;23;20013;-89
2022/12/05 10:06:50;;;;;;;2.03;0.65;;;4.70;99.90;;;;;;6187922;23;20025;-91
2022/12/05 10:09:24;;;;;;;0.17;0.17;;;4.70;99.90;;;;;;6213709;23;20023;-93
2022/12/05 10:12:04;;;;;;;0.30;0.25;;;4.70;99.90;;;;;;6189335;23;20023;-93
2022/12/05 10:14:45;;;;;;;0.93;0.30;;;5.30;99.90;;;;;;6213676;23;20017;-93
2022/12/05 10:17:29;;;;;;;0.35;0.30;;;4.70;99.90;;;;;;6189828;23;20020;-92
2022/12/05 10:19:59;;;;;;;0.43;0.43;;;4.70;99.90;;;;;;6189180;23;20024;-92
2022/12/05 10:22:33;;;;;;;0.65;0.35;;;4.70;99.90;;;;;;6214027;23;20048;-93
2022/12/05 10:25:04;;;;;;;0.65;0.50;;;5.80;99.90;;;;;;6213976;23;20075;-92
2022/12/05 10:27:35;;;;;;;0.68;0.45;;;4.70;99.90;;;;;;6214228;23;20025;-88
2022/12/05 10:30:06;;;;;;;0.05;0.05;;;4.70;99.90;;;;;;6213251;23;20402;-90
2022/12/05 10:32:48;;;;;;;1.13;0.63;;;4.70;99.90;;;;;;6213619;23;20016;-90
2022/12/05 10:35:23;;;;;;;0.30;0.30;;;4.70;99.90;;;;;;6213430;23;20091;-90
2022/12/05 10:37:58;;;;;;;0.90;0.63;;;4.70;99.90;;;;;;6188319;23;20016;-91
2022/12/05 10:40:32;;;;;;;1.58;0.35;;;4.70;99.90;;;;;;6212514;23;20322;-89
2022/12/05 10:42:58;;;;;;;0.57;0.28;;;4.70;99.90;;;;;;6213906;23;20016;-91
2022/12/05 10:45:23;;;;;;;0.20;0.20;;;5.00;99.90;;;;;;6213695;23;20020;-91
2022/12/05 10:47:54;;;;;;;0.40;0.30;;;5.00;99.90;;;;;;6165721;23;20016;-87
2022/12/05 10:50:37;;;;;;;1.17;0.40;;;5.00;99.90;;;;;;6213247;23;20112;-90
2022/12/05 10:53:05;;;;;;;0.93;0.30;;;4.70;99.90;;;;;;6206257;23;20020;-91
2022/12/05 10:55:41;;;;;;;1.02;0.30;;;4.70;99.90;;;;;;6186121;23;20024;-89
2022/12/05 10:58:15;;;;;;;0.30;0.30;;;4.70;99.90;;;;;;6211880;23;20315;-92
2022/12/05 11:00:45;;;;;;;0.25;0.25;;;4.70;99.90;;;;;;6187277;23;20052;-92
2022/12/05 11:03:30;;;;;;;0.28;0.20;;;4.70;99.90;;;;;;6186077;23;20017;-92
2022/12/05 11:05:59;;;;;;;0.35;0.22;;;4.70;99.90;;;;;;6212125;23;20017;-88
2022/12/05 11:08:33;;;;;;;0.52;0.52;;;4.70;99.90;;;;;;6214480;23;20040;-90
2022/12/05 11:11:03;;;;;;;0.20;0.20;;;5.70;99.90;;;;;;6192100;23;20035;-90
2022/12/05 11:13:29;;;;;;;0.50;0.20;;;4.70;99.90;;;;;;6185351;23;20359;-90
2022/12/05 11:15:55;;;;;;;0.40;0.40;;;4.70;99.90;;;;;;6185565;23;20013;-91
2022/12/05 11:18:24;;;;;;;0.30;0.20;;;4.70;99.90;;;;;;6186835;23;20534;-90
2022/12/05 11:20:50;;;;;;;1.15;0.40;;;5.00;99.90;;;;;;6211354;23;20023;-90
2022/12/05 11:23:22;;;;;;;0.20;0.20;;;4.70;99.90;;;;;;6186226;23;20078;-90
2022/12/05 11:25:48;;;;;;;0.28;0.28;;;4.70;99.90;;;;;;6186059;23;20343;-88
2022/12/05 11:28:17;;;;;;;0.35;0.13;;;4.70;99.90;;;;;;6187018;23;20027;-90
2022/12/05 11:31:02;;;;;;;0.98;0.20;;;4.70;99.90;;;;;;6186120;23;20103;-89
2022/12/05 11:33:34;;;;;;;0.65;0.40;;;4.90;99.90;;;;;;6211116;23;20013;-87
2022/12/05 11:36:19;;;;;;;0.57;0.35;;;5.40;99.90;;;;;;6186055;23;20020;-89
2022/12/05 11:38:45;;;;;;;0.13;0.10;;;5.10;99.90;;;;;;6188843;23;20020;-92
2022/12/05 11:41:30;;;;;;;0.45;0.20;;;4.70;99.90;;;;;;6196109;23;20512;-87
2022/12/05 11:44:30;;;;;;;0.25;0.10;;;4.70;99.90;;;;;;6186602;23;20066;-89
2022/12/05 11:47:05;;;;;;;0.65;0.45;;;4.70;99.90;;;;;;6187235;23;20056;-89
2022/12/05 11:49:33;;;;;;;0.10;0.10;;;4.70;99.90;;;;;;6186249;23;20119;-89
2022/12/05 11:52:17;;;;;;;0.20;0.20;;;4.70;99.90;;;;;;6185889;23;20028;-87
2022/12/05 11:54:55;;;;;;;0.00;0.00;;;4.80;99.90;;;;;;6211090;23;20075;-88
2022/12/05 11:57:54;;;;;;;0.17;0.10;;;4.80;99.90;;;;;;6184676;23;20048;-88
2022/12/05 12:00:21;;;;;;;1.35;0.28;;;4.80;99.90;;;;;;6214362;23;20019;-86
2022/12/05 12:03:21;;;;;;;1.40;0.50;;;5.40;99.90;;;;;;6185587;23;20017;-89
2022/12/05 12:06:02;;;;;;;0.47;0.10;;;4.70;99.90;;;;;;6212235;23;20052;-90
2022/12/05 12:08:55;;;;;;;0.93;0.10;;;4.80;99.90;;;;;;6186690;23;20091;-88
2022/12/05 12:11:31;;;;;;;0.22;0.22;;;4.80;99.90;;;;;;6157070;23;20012;-88
2022/12/05 12:14:03;;;;;;;1.70;1.20;;;5.40;99.90;;;;;;6211686;23;20028;-88
2022/12/05 12:16:41;;;;;;;0.20;0.20;;;5.00;99.90;;;;;;6186229;23;20108;-88
2022/12/05 12:19:40;;;;;;;0.50;0.40;;;4.80;99.90;;;;;;6185639;23;20076;-88
2022/12/05 12:22:38;;;;;;;0.73;0.30;;;4.80;99.90;;;;;;6081330;23;20041;-87
2022/12/05 12:25:33;;;;;;;0.10;0.10;;;4.80;99.90;;;;;;6185719;23;20361;-88
2022/12/05 12:28:04;;;;;;;0.15;0.10;;;4.80;99.90;;;;;;6185722;23;20035;-87
2022/12/05 12:30:38;;;;;;;0.10;0.10;;;4.80;99.90;;;;;;6210819;23;20373;-88
2022/12/05 12:33:28;;;;;;;0.20;0.20;;;4.80;99.90;;;;;;6210571;23;20394;-87
2022/12/05 12:36:26;;;;;;;0.95;0.30;;;4.90;99.90;;;;;;6185817;23;20430;-87
2022/12/05 12:38:55;;;;;;;0.28;0.28;;;4.80;99.90;;;;;;6184332;23;20467;-88
2022/12/05 12:42:12;;;;;;;0.43;0.20;;;4.80;99.90;;;;;;6210645;23;20016;-88
2022/12/05 12:45:00;;;;;;;0.77;0.20;;;4.80;99.90;;;;;;6106384;23;20512;-87
2022/12/05 12:47:38;;;;;;;0.52;0.38;;;4.80;99.90;;;;;;6187359;23;20078;-88
2022/12/05 12:50:18;;;;;;;0.63;0.32;;;4.80;99.90;;;;;;6213342;23;20087;-88
2022/12/05 12:53:06;;;;;;;0.47;0.25;;;4.80;99.90;;;;;;6212647;23;20091;-88
2022/12/05 12:55:55;;;;;;;0.13;0.10;;;4.80;99.90;;;;;;6187693;23;20043;-88
2022/12/05 12:58:48;;;;;;;0.60;0.32;;;4.80;99.90;;;;;;6212530;23;20019;-88
2022/12/05 13:01:34;;;;;;;0.15;0.10;;;4.80;99.90;;;;;;6188007;23;20048;-88
2022/12/05 13:04:11;;;;;;;0.20;0.20;;;4.80;99.90;;;;;;6214559;23;20013;-87
2022/12/05 13:06:57;;;;;;;0.20;0.20;;;5.20;99.90;;;;;;6214081;23;20418;-87
2022/12/05 13:09:26;;;;;;;0.55;0.55;;;4.80;99.90;;;;;;6212846;23;20032;-87
2022/12/05 13:11:53;;;;;;;1.75;0.47;;;4.80;99.90;;;;;;6212566;23;20016;-87
2022/12/05 13:14:24;;;;;;;0.10;0.10;;;4.80;99.90;;;;;;6211934;23;20013;-87
2022/12/05 13:16:51;;;;;;;0.50;0.22;;;4.80;99.90;;;;;;6212705;23;20365;-88
2022/12/05 13:19:36;;;;;;;0.20;0.20;;;4.80;99.90;;;;;;6213831;23;20120;-87
2022/12/05 13:22:02;;;;;;;1.95;0.10;;;4.80;99.90;;;;;;6212203;23;20023;-87
2022/12/05 13:24:28;;;;;;;0.13;0.10;;;5.30;99.90;;;;;;6186402;23;20016;-85
2022/12/05 13:26:59;;;;;;;0.10;0.10;;;4.80;99.90;;;;;;6210793;23;20378;-87
2022/12/05 13:29:35;;;;;;;0.50;0.15;;;4.80;99.90;;;;;;6213036;23;20024;-87
2022/12/05 13:32:02;;;;;;;0.28;0.20;;;5.60;99.90;;;;;;6212485;23;20436;-87